PWSweather.com
Personal Weather Stations
Station Observations
KJ4AJP
Beautiful Downtown Gardner, Martin, TN 38237

Beautiful Downtown GardnerMartin, TN 38237

Lat: 36.358, Lon: -88.8994

Elevation: 384.3

Station Type: TP1080WC

http://weather.mambm.com/

High Low Average
Temperature 39.0°F3.9°C 17.8°F-7.9°C 22.8°F-5.1°C
Dew Point 38.8°F3.8°C 17.6°F-8.0°C 22.5°F-5.3°C
Winds 12.1 mph 19.5 kmh Calm Calm 4.0 mph NNW6.4 kmh NNW
Wind Gusts 28.2 mph45.4 kmh 3.1 mph5.0 kmh 13.0 mph20.9 kmh
Humidity 99% 95% 99%
Pressure 30.31 in1026.4 mb 29.74 in1007.1 mb -
Precipitation 0.13 in3.3 mm - -
Hour Temp Dew Point Humidity Winds Wind Gusts Pressure Precip Precip Rate Daily Precip Total
12:00 AM 45.7°F7.6°C 45.4°F7.4°C 99% 11.4 mph N18.3 kmh N 20.6 mph33.2 kmh 29.72 in1006.4 mb 0.04 in1.0 mm 0.00 in0.0 mm 0.64 in16.3 mm
12:15 AM 44.8°F7.1°C 44.5°F6.9°C 99% 4.5 mph N7.2 kmh N 21.3 mph34.3 kmh 29.75 in1007.5 mb 0.01 in0.3 mm 0.00 in0.0 mm 0.64 in16.3 mm
12:30 AM 43.2°F6.2°C 42.9°F6.1°C 99% 4.5 mph NNW7.2 kmh NNW 15.2 mph24.5 kmh 29.77 in1008.1 mb 0.04 in1.0 mm 0.12 in3.0 mm 0.66 in16.8 mm
12:45 AM 41.0°F5.0°C 40.7°F4.8°C 99% 7.6 mph N12.2 kmh N 22.1 mph35.6 kmh 29.75 in1007.5 mb 0.07 in1.8 mm 0.12 in3.0 mm 0.70 in17.8 mm
01:00 AM 39.0°F3.9°C 38.8°F3.8°C 99% 5.4 mph N8.7 kmh N 19.7 mph31.7 kmh 29.74 in1007.1 mb 0.08 in2.0 mm 0.01 in0.3 mm 0.11 in2.8 mm
01:15 AM 37.8°F3.2°C 37.5°F3.1°C 99% 3.1 mph NNW5.0 kmh NNW 16.8 mph27.0 kmh 29.77 in1008.1 mb 0.11 in2.8 mm 0.12 in3.0 mm 0.02 in0.5 mm
01:30 AM 36.1°F2.3°C 35.9°F2.2°C 99% 3.8 mph NNW6.1 kmh NNW 20.6 mph33.2 kmh 29.77 in1008.1 mb 0.12 in3.0 mm 0.04 in1.0 mm 0.06 in1.5 mm
01:45 AM 34.5°F1.4°C 34.3°F1.3°C 99% 10.7 mph NW17.2 kmh NW 25.9 mph41.7 kmh 29.77 in1008.1 mb 0.11 in2.8 mm 0.00 in0.0 mm 0.08 in2.0 mm
02:00 AM 33.8°F1.0°C 33.6°F0.9°C 99% 6.9 mph NNW11.1 kmh NNW 19.0 mph30.6 kmh 29.76 in1007.8 mb 0.09 in2.3 mm 0.00 in0.0 mm 0.09 in2.3 mm
02:15 AM 33.1°F0.6°C 32.8°F0.4°C 99% 5.4 mph NNW8.7 kmh NNW 28.2 mph45.4 kmh 29.78 in1008.5 mb 0.07 in1.8 mm 0.00 in0.0 mm 0.09 in2.3 mm
02:30 AM 32.7°F0.4°C 32.5°F0.3°C 99% 4.5 mph N7.2 kmh N 21.3 mph34.3 kmh 29.80 in1009.1 mb 0.04 in1.0 mm 0.00 in0.0 mm 0.09 in2.3 mm
02:45 AM 32.7°F0.4°C 32.5°F0.3°C 99% 9.2 mph N14.8 kmh N 18.3 mph29.5 kmh 29.80 in1009.1 mb 0.02 in0.5 mm 0.00 in0.0 mm 0.11 in2.8 mm
03:00 AM 32.5°F0.3°C 32.3°F0.2°C 99% 3.1 mph N5.0 kmh N 17.4 mph28.0 kmh 29.80 in1009.1 mb 0.01 in0.3 mm 0.00 in0.0 mm 0.11 in2.8 mm
03:15 AM 32.0°F0.0°C 31.8°F-0.1°C 99% 9.2 mph NW14.8 kmh NW 27.3 mph43.9 kmh 29.80 in1009.1 mb 0.01 in0.3 mm 0.00 in0.0 mm 0.11 in2.8 mm
03:30 AM 31.5°F-0.3°C 31.2°F-0.4°C 99% 4.5 mph NNW7.2 kmh NNW 17.4 mph28.0 kmh 29.81 in1009.5 mb 0.02 in0.5 mm 0.04 in1.0 mm 0.12 in3.0 mm
03:45 AM 30.7°F-0.7°C 30.5°F-0.8°C 99% 6.9 mph N11.1 kmh N 22.1 mph35.6 kmh 29.81 in1009.5 mb 0.01 in0.3 mm 0.00 in0.0 mm 0.12 in3.0 mm
04:00 AM 30.0°F-1.1°C 29.8°F-1.2°C 99% 10.7 mph N17.2 kmh N 24.4 mph39.3 kmh 29.80 in1009.1 mb 0.01 in0.3 mm 0.00 in0.0 mm 0.12 in3.0 mm
04:15 AM 29.5°F-1.4°C 29.2°F-1.6°C 99% 5.4 mph N8.7 kmh N 22.1 mph35.6 kmh 29.80 in1009.1 mb 0.01 in0.3 mm 0.00 in0.0 mm 0.12 in3.0 mm
04:30 AM 29.3°F-1.5°C 29.1°F-1.6°C 99% 6.9 mph N11.1 kmh N 17.4 mph28.0 kmh 29.80 in1009.1 mb 0.00 in0.0 mm 0.00 in0.0 mm 0.12 in3.0 mm
04:45 AM 28.6°F-1.9°C 28.3°F-2.1°C 99% 6.0 mph NNW9.7 kmh NNW 16.8 mph27.0 kmh 29.80 in1009.1 mb 0.01 in0.3 mm 0.04 in1.0 mm 0.13 in3.3 mm
05:00 AM 28.0°F-2.2°C 27.8°F-2.3°C 99% 3.1 mph NNW5.0 kmh NNW 15.2 mph24.5 kmh 29.82 in1009.8 mb 0.01 in0.3 mm 0.00 in0.0 mm 0.13 in3.3 mm
05:15 AM 27.5°F-2.5°C 27.3°F-2.6°C 99% 4.5 mph NNW7.2 kmh NNW 16.8 mph27.0 kmh 29.82 in1009.8 mb 0.01 in0.3 mm 0.00 in0.0 mm 0.13 in3.3 mm
05:30 AM 27.1°F-2.7°C 26.9°F-2.8°C 99% 5.4 mph N8.7 kmh N 13.6 mph21.9 kmh 29.83 in1010.2 mb 0.01 in0.3 mm 0.00 in0.0 mm 0.13 in3.3 mm
05:45 AM 26.4°F-3.1°C 26.2°F-3.2°C 99% 9.2 mph N14.8 kmh N 20.6 mph33.2 kmh 29.83 in1010.2 mb 0.00 in0.0 mm 0.00 in0.0 mm 0.13 in3.3 mm
06:00 AM 26.1°F-3.3°C 25.8°F-3.4°C 99% 6.0 mph N9.7 kmh N 17.4 mph28.0 kmh 29.84 in1010.5 mb 0.00 in0.0 mm 0.00 in0.0 mm 0.13 in3.3 mm
06:15 AM 25.7°F-3.5°C 25.5°F-3.6°C 99% 3.1 mph N5.0 kmh N 13.0 mph20.9 kmh 29.84 in1010.5 mb 0.00 in0.0 mm 0.00 in0.0 mm 0.13 in3.3 mm
06:30 AM 25.0°F-3.9°C 24.8°F-4.0°C 99% 3.8 mph N6.1 kmh N 19.0 mph30.6 kmh 29.85 in1010.8 mb 0.00 in0.0 mm 0.00 in0.0 mm 0.13 in3.3 mm
06:45 AM 24.6°F-4.1°C 24.4°F-4.2°C 99% 3.8 mph NNW6.1 kmh NNW 15.9 mph25.6 kmh 29.87 in1011.5 mb 0.00 in0.0 mm 0.00 in0.0 mm 0.13 in3.3 mm
07:00 AM 24.1°F-4.4°C 23.9°F-4.5°C 99% 1.6 mph NNW2.6 kmh NNW 13.6 mph21.9 kmh 29.87 in1011.5 mb 0.00 in0.0 mm 0.00 in0.0 mm 0.13 in3.3 mm
07:15 AM 23.7°F-4.6°C 23.5°F-4.7°C 99% 9.8 mph N15.8 kmh N 22.8 mph36.7 kmh 29.86 in1011.2 mb 0.00 in0.0 mm 0.00 in0.0 mm 0.13 in3.3 mm
07:30 AM 23.2°F-4.9°C 23.0°F-5.0°C 99% 9.2 mph N14.8 kmh N 21.3 mph34.3 kmh 29.84 in1010.5 mb 0.00 in0.0 mm 0.00 in0.0 mm 0.13 in3.3 mm
07:45 AM 22.8°F-5.1°C 22.6°F-5.2°C 99% 6.0 mph N9.7 kmh N 18.3 mph29.5 kmh 29.86 in1011.2 mb 0.00 in0.0 mm 0.00 in0.0 mm 0.13 in3.3 mm
08:00 AM 22.1°F-5.5°C 21.9°F-5.6°C 99% 5.4 mph N8.7 kmh N 19.0 mph30.6 kmh 29.86 in1011.2 mb 0.00 in0.0 mm 0.00 in0.0 mm 0.13 in3.3 mm
08:15 AM 21.9°F-5.6°C 21.7°F-5.7°C 99% 8.3 mph N13.4 kmh N 19.0 mph30.6 kmh 29.87 in1011.5 mb 0.00 in0.0 mm 0.00 in0.0 mm 0.13 in3.3 mm
08:30 AM 21.7°F-5.7°C 21.5°F-5.8°C 99% 0.7 mph NW1.1 kmh NW 16.8 mph27.0 kmh 29.87 in1011.5 mb 0.00 in0.0 mm 0.00 in0.0 mm 0.13 in3.3 mm
08:45 AM 21.2°F-6.0°C 21.0°F-6.1°C 99% 3.8 mph NNW6.1 kmh NNW 14.5 mph23.3 kmh 29.87 in1011.5 mb 0.00 in0.0 mm 0.00 in0.0 mm 0.13 in3.3 mm
09:00 AM 20.7°F-6.3°C 20.5°F-6.4°C 99% 6.9 mph N11.1 kmh N 19.0 mph30.6 kmh 29.83 in1010.2 mb 0.00 in0.0 mm 0.00 in0.0 mm 0.13 in3.3 mm
09:15 AM 20.1°F-6.6°C 19.9°F-6.7°C 99% 5.4 mph N8.7 kmh N 19.0 mph30.6 kmh 29.89 in1012.2 mb 0.00 in0.0 mm 0.00 in0.0 mm 0.13 in3.3 mm
09:30 AM 19.9°F-6.7°C 19.7°F-6.8°C 99% Calm Calm 6.9 mph11.1 kmh 29.91 in1012.9 mb 0.00 in0.0 mm 0.00 in0.0 mm 0.13 in3.3 mm
09:45 AM 19.6°F-6.9°C 19.4°F-7.0°C 99% 5.4 mph NNW8.7 kmh NNW 16.8 mph27.0 kmh 29.93 in1013.5 mb 0.00 in0.0 mm 0.00 in0.0 mm 0.13 in3.3 mm
10:00 AM 19.4°F-7.0°C 19.2°F-7.1°C 99% Calm Calm 8.3 mph13.4 kmh 29.95 in1014.2 mb 0.00 in0.0 mm 0.00 in0.0 mm 0.13 in3.3 mm
10:15 AM 18.9°F-7.3°C 18.7°F-7.4°C 99% 1.6 mph NW2.6 kmh NW 8.3 mph13.4 kmh 29.98 in1015.2 mb 0.00 in0.0 mm 0.00 in0.0 mm 0.13 in3.3 mm
10:30 AM 18.9°F-7.3°C 18.7°F-7.4°C 99% 2.2 mph NW3.5 kmh NW 8.3 mph13.4 kmh 30.00 in1015.9 mb 0.00 in0.0 mm 0.00 in0.0 mm 0.13 in3.3 mm
10:45 AM 18.5°F-7.5°C 18.3°F-7.6°C 99% 1.6 mph NNW2.6 kmh NNW 6.9 mph11.1 kmh 30.01 in1016.3 mb 0.00 in0.0 mm 0.00 in0.0 mm 0.13 in3.3 mm
11:00 AM 18.5°F-7.5°C 18.3°F-7.6°C 99% 0.7 mph NNW1.1 kmh NNW 6.0 mph9.7 kmh 30.03 in1016.9 mb 0.00 in0.0 mm 0.00 in0.0 mm 0.13 in3.3 mm
11:15 AM 18.3°F-7.6°C 18.1°F-7.7°C 99% 1.6 mph NNW2.6 kmh NNW 5.4 mph8.7 kmh 30.04 in1017.3 mb 0.00 in0.0 mm 0.00 in0.0 mm 0.13 in3.3 mm
11:30 AM 18.1°F-7.7°C 17.9°F-7.8°C 99% 1.6 mph NNW2.6 kmh NNW 3.1 mph5.0 kmh 30.03 in1016.9 mb 0.00 in0.0 mm 0.00 in0.0 mm 0.13 in3.3 mm
11:45 AM 18.0°F-7.8°C 17.8°F-7.9°C 99% 1.6 mph NW2.6 kmh NW 6.0 mph9.7 kmh 30.03 in1016.9 mb 0.00 in0.0 mm 0.00 in0.0 mm 0.13 in3.3 mm
12:00 PM 18.0°F-7.8°C 17.8°F-7.9°C 99% 2.2 mph NNW3.5 kmh NNW 7.6 mph12.2 kmh 30.02 in1016.6 mb 0.00 in0.0 mm 0.00 in0.0 mm 0.13 in3.3 mm
12:15 PM 17.8°F-7.9°C 17.6°F-8.0°C 99% 3.8 mph NW6.1 kmh NW 9.8 mph15.8 kmh 30.01 in1016.3 mb 0.00 in0.0 mm 0.00 in0.0 mm 0.13 in3.3 mm
12:30 PM 17.8°F-7.9°C 17.6°F-8.0°C 99% 1.6 mph NNW2.6 kmh NNW 8.3 mph13.4 kmh 30.01 in1016.3 mb 0.00 in0.0 mm 0.00 in0.0 mm 0.13 in3.3 mm
12:45 PM 18.3°F-7.6°C 18.1°F-7.7°C 99% Calm Calm 5.4 mph8.7 kmh 30.00 in1015.9 mb 0.00 in0.0 mm 0.00 in0.0 mm 0.13 in3.3 mm
01:00 PM 18.5°F-7.5°C 18.3°F-7.6°C 99% 3.8 mph NW6.1 kmh NW 9.8 mph15.8 kmh 30.00 in1015.9 mb 0.00 in0.0 mm 0.00 in0.0 mm 0.13 in3.3 mm
01:15 PM 18.7°F-7.4°C 18.5°F-7.5°C 99% 1.6 mph NNW2.6 kmh NNW 7.6 mph12.2 kmh 30.00 in1015.9 mb 0.00 in0.0 mm 0.00 in0.0 mm 0.13 in3.3 mm
01:30 PM 19.2°F-7.1°C 19.0°F-7.2°C 99% 4.5 mph NW7.2 kmh NW 6.9 mph11.1 kmh 30.00 in1015.9 mb 0.00 in0.0 mm 0.00 in0.0 mm 0.13 in3.3 mm
01:45 PM 19.6°F-6.9°C 19.4°F-7.0°C 99% 3.1 mph NW5.0 kmh NW 9.2 mph14.8 kmh 30.00 in1015.9 mb 0.00 in0.0 mm 0.00 in0.0 mm 0.13 in3.3 mm
02:00 PM 20.1°F-6.6°C 19.9°F-6.7°C 99% 3.8 mph NW6.1 kmh NW 7.6 mph12.2 kmh 30.01 in1016.3 mb 0.00 in0.0 mm 0.00 in0.0 mm 0.13 in3.3 mm
02:15 PM 20.5°F-6.4°C 20.3°F-6.5°C 99% 2.2 mph NW3.5 kmh NW 9.8 mph15.8 kmh 30.01 in1016.3 mb 0.00 in0.0 mm 0.00 in0.0 mm 0.13 in3.3 mm
02:30 PM 20.5°F-6.4°C 20.3°F-6.5°C 99% 3.8 mph NNW6.1 kmh NNW 7.6 mph12.2 kmh 30.01 in1016.3 mb 0.00 in0.0 mm 0.00 in0.0 mm 0.13 in3.3 mm
02:45 PM 20.7°F-6.3°C 20.5°F-6.4°C 99% 3.8 mph NNW6.1 kmh NNW 7.6 mph12.2 kmh 30.02 in1016.6 mb 0.00 in0.0 mm 0.00 in0.0 mm 0.13 in3.3 mm
03:00 PM 20.5°F-6.4°C 20.3°F-6.5°C 99% 2.2 mph NW3.5 kmh NW 7.6 mph12.2 kmh 30.01 in1016.3 mb 0.00 in0.0 mm 0.00 in0.0 mm 0.13 in3.3 mm
03:15 PM 20.8°F-6.2°C 20.6°F-6.3°C 99% 2.2 mph NNW3.5 kmh NNW 9.2 mph14.8 kmh 30.04 in1017.3 mb 0.00 in0.0 mm 0.00 in0.0 mm 0.13 in3.3 mm
03:30 PM 20.8°F-6.2°C 20.6°F-6.3°C 99% 2.2 mph NNW3.5 kmh NNW 10.7 mph17.2 kmh 30.05 in1017.6 mb 0.00 in0.0 mm 0.00 in0.0 mm 0.13 in3.3 mm
03:45 PM 20.7°F-6.3°C 20.5°F-6.4°C 99% 4.5 mph NW7.2 kmh NW 13.6 mph21.9 kmh 30.06 in1017.9 mb 0.00 in0.0 mm 0.00 in0.0 mm 0.13 in3.3 mm
04:00 PM 20.8°F-6.2°C 20.6°F-6.3°C 99% 2.2 mph NW3.5 kmh NW 9.2 mph14.8 kmh 30.06 in1017.9 mb 0.00 in0.0 mm 0.00 in0.0 mm 0.13 in3.3 mm
04:15 PM 21.4°F-5.9°C 21.2°F-6.0°C 99% 3.1 mph NW5.0 kmh NW 7.6 mph12.2 kmh 30.07 in1018.3 mb 0.00 in0.0 mm 0.00 in0.0 mm 0.13 in3.3 mm
04:30 PM 21.9°F-5.6°C 21.7°F-5.7°C 99% 3.8 mph NW6.1 kmh NW 8.3 mph13.4 kmh 30.09 in1019.0 mb 0.00 in0.0 mm 0.00 in0.0 mm 0.13 in3.3 mm
04:45 PM 22.6°F-5.2°C 22.4°F-5.3°C 99% 3.1 mph NW5.0 kmh NW 9.2 mph14.8 kmh 30.10 in1019.3 mb 0.00 in0.0 mm 0.00 in0.0 mm 0.13 in3.3 mm
05:00 PM 22.5°F-5.3°C 22.2°F-5.4°C 99% 3.8 mph NW6.1 kmh NW 8.3 mph13.4 kmh 30.11 in1019.6 mb 0.00 in0.0 mm 0.00 in0.0 mm 0.13 in3.3 mm
05:15 PM 21.9°F-5.6°C 21.7°F-5.7°C 99% 0.7 mph NW1.1 kmh NW 7.6 mph12.2 kmh 30.12 in1020.0 mb 0.00 in0.0 mm 0.00 in0.0 mm 0.13 in3.3 mm
05:30 PM 21.2°F-6.0°C 21.0°F-6.1°C 99% 3.8 mph NW6.1 kmh NW 8.3 mph13.4 kmh 30.13 in1020.3 mb 0.00 in0.0 mm 0.00 in0.0 mm 0.13 in3.3 mm
05:45 PM 20.7°F-6.3°C 20.5°F-6.4°C 99% 3.1 mph NNW5.0 kmh NNW 10.7 mph17.2 kmh 30.14 in1020.7 mb 0.00 in0.0 mm 0.00 in0.0 mm 0.13 in3.3 mm
06:00 PM 20.1°F-6.6°C 19.9°F-6.7°C 99% 0.7 mph NW1.1 kmh NW 7.6 mph12.2 kmh 30.15 in1021.0 mb 0.00 in0.0 mm 0.00 in0.0 mm 0.13 in3.3 mm
06:15 PM 19.9°F-6.7°C 19.7°F-6.8°C 99% 1.6 mph NNW2.6 kmh NNW 8.3 mph13.4 kmh 30.16 in1021.3 mb 0.00 in0.0 mm 0.00 in0.0 mm 0.13 in3.3 mm
06:30 PM 19.8°F-6.8°C 19.6°F-6.9°C 99% 3.1 mph NNW5.0 kmh NNW 9.2 mph14.8 kmh 30.17 in1021.7 mb 0.00 in0.0 mm 0.00 in0.0 mm 0.13 in3.3 mm
06:45 PM 19.6°F-6.9°C 19.4°F-7.0°C 99% 5.4 mph NW8.7 kmh NW 10.7 mph17.2 kmh 30.18 in1022.0 mb 0.00 in0.0 mm 0.00 in0.0 mm 0.13 in3.3 mm
07:00 PM 19.6°F-6.9°C 19.4°F-7.0°C 99% 3.1 mph NNW5.0 kmh NNW 8.3 mph13.4 kmh 30.19 in1022.4 mb 0.00 in0.0 mm 0.00 in0.0 mm 0.13 in3.3 mm
07:15 PM 19.6°F-6.9°C 19.4°F-7.0°C 99% 3.1 mph NNW5.0 kmh NNW 9.2 mph14.8 kmh 30.19 in1022.4 mb 0.00 in0.0 mm 0.00 in0.0 mm 0.13 in3.3 mm
07:30 PM 19.6°F-6.9°C 19.4°F-7.0°C 99% 3.1 mph NW5.0 kmh NW 9.2 mph14.8 kmh 30.19 in1022.4 mb 0.00 in0.0 mm 0.00 in0.0 mm 0.13 in3.3 mm
07:45 PM 19.6°F-6.9°C 19.4°F-7.0°C 99% 2.2 mph NW3.5 kmh NW 11.4 mph18.3 kmh 30.18 in1022.0 mb 0.00 in0.0 mm 0.00 in0.0 mm 0.13 in3.3 mm
08:00 PM 19.6°F-6.9°C 19.4°F-7.0°C 99% 3.1 mph NW5.0 kmh NW 7.6 mph12.2 kmh 30.19 in1022.4 mb 0.00 in0.0 mm 0.00 in0.0 mm 0.13 in3.3 mm
08:15 PM 19.6°F-6.9°C 19.4°F-7.0°C 99% 3.1 mph NW5.0 kmh NW 14.5 mph23.3 kmh 30.20 in1022.7 mb 0.00 in0.0 mm 0.00 in0.0 mm 0.13 in3.3 mm
08:30 PM 19.8°F-6.8°C 19.6°F-6.9°C 99% 1.6 mph NNW2.6 kmh NNW 6.9 mph11.1 kmh 30.21 in1023.0 mb 0.00 in0.0 mm 0.00 in0.0 mm 0.13 in3.3 mm
08:45 PM 19.8°F-6.8°C 19.6°F-6.9°C 99% 4.5 mph NW7.2 kmh NW 9.2 mph14.8 kmh 30.22 in1023.4 mb 0.00 in0.0 mm 0.00 in0.0 mm 0.13 in3.3 mm
09:00 PM 20.1°F-6.6°C 19.9°F-6.7°C 99% 1.6 mph NNW2.6 kmh NNW 10.7 mph17.2 kmh 30.23 in1023.7 mb 0.00 in0.0 mm 0.00 in0.0 mm 0.13 in3.3 mm
09:15 PM 20.1°F-6.6°C 19.9°F-6.7°C 99% 3.1 mph NNW5.0 kmh NNW 10.7 mph17.2 kmh 30.23 in1023.7 mb 0.00 in0.0 mm 0.00 in0.0 mm 0.13 in3.3 mm
09:30 PM 20.3°F-6.5°C 19.9°F-6.7°C 98% 6.9 mph N11.1 kmh N 15.2 mph24.5 kmh 30.23 in1023.7 mb 0.00 in0.0 mm 0.00 in0.0 mm 0.13 in3.3 mm
09:45 PM 20.3°F-6.5°C 19.9°F-6.7°C 98% 3.8 mph NW6.1 kmh NW 12.1 mph19.5 kmh 30.24 in1024.0 mb 0.00 in0.0 mm 0.00 in0.0 mm 0.13 in3.3 mm
10:00 PM 20.3°F-6.5°C 19.6°F-6.9°C 97% 6.0 mph NNW9.7 kmh NNW 15.2 mph24.5 kmh 30.25 in1024.4 mb 0.00 in0.0 mm 0.00 in0.0 mm 0.13 in3.3 mm
10:15 PM 20.3°F-6.5°C 19.6°F-6.9°C 97% 7.6 mph N12.2 kmh N 15.2 mph24.5 kmh 30.25 in1024.4 mb 0.00 in0.0 mm 0.00 in0.0 mm 0.13 in3.3 mm
10:30 PM 20.3°F-6.5°C 19.6°F-6.9°C 97% 6.0 mph NW9.7 kmh NW 15.2 mph24.5 kmh 30.25 in1024.4 mb 0.00 in0.0 mm 0.00 in0.0 mm 0.13 in3.3 mm
10:45 PM 20.3°F-6.5°C 19.4°F-7.0°C 96% 5.4 mph N8.7 kmh N 13.6 mph21.9 kmh 30.27 in1025.1 mb 0.00 in0.0 mm 0.00 in0.0 mm 0.13 in3.3 mm
11:00 PM 20.5°F-6.4°C 19.6°F-6.9°C 96% 5.4 mph NNW8.7 kmh NNW 17.4 mph28.0 kmh 30.27 in1025.1 mb 0.00 in0.0 mm 0.00 in0.0 mm 0.13 in3.3 mm
11:15 PM 20.5°F-6.4°C 19.6°F-6.9°C 96% 3.8 mph NNW6.1 kmh NNW 18.3 mph29.5 kmh 30.27 in1025.1 mb 0.00 in0.0 mm 0.00 in0.0 mm 0.13 in3.3 mm
11:30 PM 20.5°F-6.4°C 19.6°F-6.9°C 96% 3.1 mph N5.0 kmh N 15.9 mph25.6 kmh 30.28 in1025.4 mb 0.00 in0.0 mm 0.00 in0.0 mm 0.13 in3.3 mm
11:45 PM 20.7°F-6.3°C 19.5°F-6.9°C 95% 12.1 mph NNW19.5 kmh NNW 19.7 mph31.7 kmh 30.28 in1025.4 mb 0.00 in0.0 mm 0.00 in0.0 mm 0.13 in3.3 mm